Time;durP1;ratioP1;P1;durP2;ratioP2;P2;SDS_P1;SDS_P2;PMS_P1;PMS_P2;Temp;Humidity;BMP_temperature;BMP_pressure;BME280_temperature;BME280_humidity;BME280_pressure;Samples;Min_cycle;Max_cycle;Signal;HPM_P1;HPM_P2
2022/12/28 00:02:26;;;;;;;10.13;6.38;;;;;;;3.49;100.00;101130.88;5013759;28;20372;-72
2022/12/28 00:04:52;;;;;;;17.48;7.88;;;;;;;3.46;100.00;101125.56;5014066;28;20199;-73
2022/12/28 00:07:19;;;;;;;14.93;7.40;;;;;;;3.49;100.00;101129.09;5015217;28;20206;-69
2022/12/28 00:09:45;;;;;;;13.55;7.65;;;;;;;3.53;100.00;101127.31;5021248;28;20199;-71
2022/12/28 00:12:13;;;;;;;10.73;7.60;;;;;;;3.63;100.00;101114.81;5013982;28;20210;-71
2022/12/28 00:14:40;;;;;;;10.82;7.57;;;;;;;3.65;100.00;101105.06;5013696;28;20241;-71
2022/12/28 00:17:06;;;;;;;11.70;7.50;;;;;;;3.61;100.00;101098.84;5013614;28;20207;-71
2022/12/28 00:19:33;;;;;;;10.93;7.50;;;;;;;3.59;100.00;101092.63;5012517;28;20195;-71
2022/12/28 00:21:59;;;;;;;11.50;7.30;;;;;;;3.69;100.00;101091.69;5013319;28;20680;-72
2022/12/28 00:24:26;;;;;;;13.55;8.35;;;;;;;3.74;100.00;101083.69;5013207;28;20198;-71
2022/12/28 00:26:55;;;;;;;12.93;7.75;;;;;;;3.78;100.00;101074.78;5013917;28;20198;-72
2022/12/28 00:29:23;;;;;;;8.88;7.13;;;;;;;3.78;100.00;101068.53;5013881;28;20277;-69
2022/12/28 00:31:50;;;;;;;10.23;7.78;;;;;;;3.80;100.00;101069.41;5014293;28;20676;-71
2022/12/28 00:34:16;;;;;;;13.55;8.00;;;;;;;3.86;100.00;101066.72;5014222;28;20222;-71
2022/12/28 00:36:43;;;;;;;10.70;7.03;;;;;;;3.79;100.00;101062.34;5013677;28;20676;-71
2022/12/28 00:39:10;;;;;;;15.57;8.50;;;;;;;3.92;100.00;101056.91;5012856;28;20215;-70
2022/12/28 00:41:36;;;;;;;8.63;6.85;;;;;;;3.99;100.00;101041.75;5013523;28;20301;-71
2022/12/28 00:44:03;;;;;;;14.82;7.18;;;;;;;3.82;100.00;101036.56;5014378;28;20195;-71
2022/12/28 00:46:30;;;;;;;14.10;7.35;;;;;;;3.91;100.00;101028.50;5013416;28;20210;-71
2022/12/28 00:48:57;;;;;;;12.93;8.40;;;;;;;3.98;100.00;101024.00;5012122;28;20711;-70
2022/12/28 00:51:23;;;;;;;8.52;7.60;;;;;;;3.94;100.00;101030.25;5013256;28;20198;-71
2022/12/28 00:53:50;;;;;;;12.23;7.85;;;;;;;3.93;100.00;101033.78;5012504;28;20229;-72
2022/12/28 00:56:19;;;;;;;12.00;7.82;;;;;;;4.02;100.00;101023.06;5013249;28;20209;-71
2022/12/28 00:58:45;;;;;;;11.27;7.35;;;;;;;4.03;100.00;101023.97;5012073;28;20218;-71
2022/12/28 01:01:15;;;;;;;11.90;7.70;;;;;;;4.01;100.00;101007.09;5013301;28;20198;-71
2022/12/28 01:03:43;;;;;;;17.63;6.97;;;;;;;4.11;100.00;101014.97;5014960;28;20194;-71
2022/12/28 01:06:15;;;;;;;10.68;7.70;;;;;;;4.12;100.00;101000.75;5015418;28;20293;-71
2022/12/28 01:08:42;;;;;;;13.27;7.40;;;;;;;4.14;100.00;100996.31;5014298;28;20226;-71
2022/12/28 01:11:11;;;;;;;10.52;7.75;;;;;;;4.18;100.00;100995.38;5012769;28;20221;-70
2022/12/28 01:13:38;;;;;;;14.07;8.30;;;;;;;4.22;100.00;100993.53;5012634;28;20225;-71
2022/12/28 01:16:11;;;;;;;8.43;6.70;;;;;;;4.25;100.00;100989.97;5013362;28;20206;-70
2022/12/28 01:18:37;;;;;;;14.65;8.48;;;;;;;4.28;100.00;100992.63;5011628;28;20215;-72
2022/12/28 01:21:10;;;;;;;16.10;9.60;;;;;;;4.32;100.00;100989.00;5013534;28;20214;-71
2022/12/28 01:23:37;;;;;;;13.35;8.20;;;;;;;4.42;100.00;100984.47;5015176;28;20553;-72
2022/12/28 01:26:05;;;;;;;12.55;8.05;;;;;;;4.41;100.00;100980.03;5014198;28;20672;-71
2022/12/28 01:28:31;;;;;;;15.32;8.20;;;;;;;4.47;100.00;100974.63;5012172;28;20214;-70
2022/12/28 01:31:03;;;;;;;10.70;7.78;;;;;;;4.54;100.00;100971.84;5012570;28;20214;-70
2022/12/28 01:33:29;;;;;;;14.82;8.60;;;;;;;4.57;100.00;100971.84;5011781;28;20187;-71
2022/12/28 01:35:56;;;;;;;14.68;8.45;;;;;;;4.51;100.00;100966.56;5012882;28;20207;-72
2022/12/28 01:38:24;;;;;;;10.35;7.28;;;;;;;4.59;100.00;100970.06;5011443;28;20218;-72
2022/12/28 01:40:51;;;;;;;13.13;9.35;;;;;;;4.60;100.00;100960.25;5012686;28;20198;-71
2022/12/28 01:43:17;;;;;;;14.85;9.20;;;;;;;4.56;100.00;100966.53;5012086;28;20676;-71
2022/12/28 01:45:50;;;;;;;9.93;8.20;;;;;;;4.57;100.00;100965.63;5012552;28;20205;-71
2022/12/28 01:48:20;;;;;;;13.18;8.90;;;;;;;4.57;100.00;100960.31;5011034;28;20222;-71
2022/12/28 01:50:48;;;;;;;14.10;8.63;;;;;;;4.63;100.00;100967.34;5009218;28;20193;-71
2022/12/28 01:53:17;;;;;;;11.80;8.40;;;;;;;4.61;100.00;100962.00;5009955;28;20199;-71
2022/12/28 01:55:46;;;;;;;12.35;8.75;;;;;;;4.57;100.00;100957.63;5009967;28;20835;-72
2022/12/28 01:58:16;;;;;;;11.85;8.73;;;;;;;4.55;100.00;100952.31;5009022;28;20703;-72
2022/12/28 02:00:42;;;;;;;13.38;10.75;;;;;;;4.53;100.00;100942.56;5012464;28;20198;-70
2022/12/28 02:03:12;;;;;;;14.38;9.35;;;;;;;4.55;100.00;100952.31;5011221;28;20195;-72
2022/12/28 02:05:43;;;;;;;12.82;9.07;;;;;;;4.54;100.00;100942.50;5009571;28;20279;-71
2022/12/28 02:08:13;;;;;;;14.35;8.85;;;;;;;4.54;100.00;100936.31;5013991;28;20289;-71
2022/12/28 02:10:41;;;;;;;13.70;9.15;;;;;;;4.55;100.00;100936.28;5017355;28;20197;-70
2022/12/28 02:13:10;;;;;;;17.23;9.15;;;;;;;4.53;100.00;100938.09;5016286;28;20199;-70
2022/12/28 02:15:36;;;;;;;12.38;8.70;;;;;;;4.61;100.00;100940.66;5021401;28;20218;-69
2022/12/28 02:18:03;;;;;;;17.05;9.73;;;;;;;4.57;100.00;100946.97;5018986;28;20218;-69
2022/12/28 02:20:40;;;;;;;12.68;9.15;;;;;;;4.61;100.00;100946.00;5020716;28;20203;-71
2022/12/28 02:23:30;;;;;;;13.57;9.20;;;;;;;4.62;100.00;100947.78;5015329;28;20187;-71
2022/12/28 02:26:15;;;;;;;17.98;9.95;;;;;;;4.58;100.00;100936.25;5007950;28;20210;-70
2022/12/28 02:29:09;;;;;;;14.95;10.45;;;;;;;4.50;100.00;100929.22;5010554;28;20218;-70
2022/12/28 02:31:41;;;;;;;12.02;10.32;;;;;;;4.49;100.00;100917.69;5010938;28;20202;-71
2022/12/28 02:34:16;;;;;;;16.63;11.90;;;;;;;4.49;100.00;100917.69;5009704;28;20213;-70
2022/12/28 02:36:50;;;;;;;16.45;10.80;;;;;;;4.52;100.00;100919.44;5013188;28;20186;-70
2022/12/28 02:39:21;;;;;;;15.23;10.68;;;;;;;4.41;100.00;100916.91;5008967;28;20280;-71
2022/12/28 02:41:48;;;;;;;16.83;10.82;;;;;;;4.46;100.00;100916.88;5010951;28;20209;-71
2022/12/28 02:50:04;;;;;;;15.07;11.63;;;;;;;4.43;100.00;100909.75;5010685;28;20282;-71
2022/12/28 02:50:08;;;;;;;14.95;10.43;;;;;;;4.43;100.00;100895.53;4962890;28;20287;-71
2022/12/28 02:53:04;;;;;;;16.70;11.20;;;;;;;4.47;100.00;100881.28;4962603;28;20197;-71
2022/12/28 02:58:49;;;;;;;19.23;11.38;;;;;;;4.41;100.00;100874.25;4955183;29;20622;-70
2022/12/28 03:01:31;;;;;;;20.20;11.10;;;;;;;4.39;100.00;100863.59;4958210;29;20303;-71
2022/12/28 03:04:10;;;;;;;15.43;11.73;;;;;;;4.47;100.00;100863.47;4958844;28;20666;-72
2022/12/28 03:09:35;;;;;;;13.75;10.23;;;;;;;4.37;100.00;100873.38;4962949;28;20621;-71
2022/12/28 03:12:08;;;;;;;12.88;9.85;;;;;;;4.39;100.00;100874.25;4964124;28;20713;-71
2022/12/28 03:14:41;;;;;;;14.45;9.95;;;;;;;4.46;100.00;100871.53;4959137;28;20634;-71
2022/12/28 03:31:12;;;;;;;16.25;9.93;;;;;;;4.59;100.00;100851.78;5013329;28;20285;-71
2022/12/28 03:33:44;;;;;;;12.05;8.70;;;;;;;4.58;100.00;100845.53;5014608;28;20190;-71
2022/12/28 03:36:25;;;;;;;16.25;9.68;;;;;;;4.58;100.00;100834.88;5012262;28;20214;-72
2022/12/28 03:39:00;;;;;;;10.13;8.75;;;;;;;4.62;100.00;100822.38;5010655;28;20404;-72
2022/12/28 03:41:32;;;;;;;14.23;9.10;;;;;;;4.65;100.00;100814.31;5014281;28;20208;-71
2022/12/28 03:44:02;;;;;;;17.80;9.40;;;;;;;4.70;100.00;100815.13;5015985;28;20670;-70
2022/12/28 03:46:34;;;;;;;11.85;8.35;;;;;;;4.79;100.00;100812.34;5016087;28;20221;-71
2022/12/28 03:49:03;;;;;;;10.75;8.25;;;;;;;4.76;100.00;100804.38;4997156;28;20226;-71
2022/12/28 03:51:31;;;;;;;13.07;8.02;;;;;;;4.80;100.00;100795.44;5015448;28;20209;-71
2022/12/28 03:53:58;;;;;;;12.90;8.70;;;;;;;4.73;100.00;100791.09;5015197;28;20209;-70
2022/12/28 03:56:27;;;;;;;11.07;7.97;;;;;;;4.81;100.00;100783.84;5013701;28;20214;-70
2022/12/28 03:58:54;;;;;;;11.95;8.50;;;;;;;4.81;100.00;100773.16;5013424;28;20712;-71
2022/12/28 04:01:21;;;;;;;11.38;8.20;;;;;;;4.92;100.00;100772.13;5013532;28;20699;-71
2022/12/28 04:03:47;;;;;;;11.82;7.72;;;;;;;4.87;100.00;100774.00;5013743;28;20573;-73
2022/12/28 04:06:16;;;;;;;14.80;8.52;;;;;;;4.86;100.00;100765.09;5013974;28;20198;-72
2022/12/28 04:08:43;;;;;;;11.20;8.35;;;;;;;4.92;100.00;100762.31;5013412;28;20253;-71
2022/12/28 04:11:11;;;;;;;13.93;8.35;;;;;;;4.99;100.00;100761.31;5014345;28;20207;-71
2022/12/28 04:13:37;;;;;;;12.15;8.32;;;;;;;5.01;100.00;100764.84;5014044;28;20198;-71
2022/12/28 04:16:05;;;;;;;10.32;8.20;;;;;;;4.99;100.00;100758.63;5013302;28;20215;-71
2022/12/28 04:18:33;;;;;;;11.93;7.80;;;;;;;5.06;100.00;100754.06;5012802;28;20219;-72
2022/12/28 04:21:00;;;;;;;11.38;7.95;;;;;;;4.99;100.00;100760.44;5013469;28;20229;-71
2022/12/28 04:23:28;;;;;;;13.60;8.50;;;;;;;5.03;100.00;100756.81;5013401;28;20676;-71
2022/12/28 04:26:00;;;;;;;12.15;8.15;;;;;;;5.06;100.00;100756.75;5013275;28;20708;-70
2022/12/28 04:28:27;;;;;;;14.60;8.57;;;;;;;5.13;100.00;100752.19;5012852;28;20219;-71
2022/12/28 04:30:54;;;;;;;11.40;8.75;;;;;;;5.08;100.00;100756.72;5013110;28;20199;-69
2022/12/28 04:33:21;;;;;;;9.73;7.18;;;;;;;5.15;100.00;100751.25;5013361;28;20199;-71
2022/12/28 04:35:47;;;;;;;12.25;8.60;;;;;;;5.19;100.00;100752.97;5013339;28;20223;-71
2022/12/28 04:38:14;;;;;;;12.43;8.13;;;;;;;5.23;100.00;100741.31;5012616;28;20222;-70
2022/12/28 04:40:41;;;;;;;12.07;8.50;;;;;;;5.23;100.00;100740.44;5015023;28;20212;-70
2022/12/28 04:43:08;;;;;;;9.15;7.40;;;;;;;5.26;100.00;100748.38;5021046;28;20207;-70
2022/12/28 04:45:35;;;;;;;10.80;7.75;;;;;;;5.29;100.00;100740.34;5015868;28;20191;-71
2022/12/28 04:48:02;;;;;;;14.00;8.57;;;;;;;5.37;100.00;100734.84;5012618;28;20588;-72
2022/12/28 04:50:29;;;;;;;11.05;7.72;;;;;;;5.32;100.00;100737.59;5013289;28;20191;-73
2022/12/28 04:52:55;;;;;;;9.30;7.15;;;;;;;5.38;100.00;100741.94;5013679;28;20583;-71
2022/12/28 04:55:22;;;;;;;9.50;7.07;;;;;;;5.33;100.00;100735.81;5013512;28;20237;-70
2022/12/28 04:57:50;;;;;;;9.45;8.27;;;;;;;5.38;100.00;100728.59;5012730;28;20693;-70
2022/12/28 05:00:16;;;;;;;10.80;8.40;;;;;;;5.33;100.00;100723.31;5012218;28;20203;-71
2022/12/28 05:02:43;;;;;;;10.65;7.22;;;;;;;5.40;100.00;100729.44;5013580;28;20206;-72
2022/12/28 05:05:09;;;;;;;9.80;7.82;;;;;;;5.40;100.00;100719.66;5013642;28;20293;-71
2022/12/28 05:07:36;;;;;;;10.52;7.70;;;;;;;5.41;100.00;100717.84;5012201;28;20799;-71
2022/12/28 05:10:03;;;;;;;9.35;7.05;;;;;;;5.48;100.00;100716.81;5012893;28;20203;-71
2022/12/28 05:12:29;;;;;;;9.77;8.07;;;;;;;5.46;100.00;100713.31;5014196;28;20289;-72
2022/12/28 05:14:57;;;;;;;10.70;7.25;;;;;;;5.44;100.00;100713.31;5013468;28;20231;-72
2022/12/28 05:17:23;;;;;;;7.70;5.55;;;;;;;5.53;100.00;100698.91;5013048;28;20217;-72
2022/12/28 05:19:50;;;;;;;8.23;5.45;;;;;;;5.56;100.00;100711.31;5012819;28;20584;-72
2022/12/28 05:22:16;;;;;;;12.52;6.50;;;;;;;5.56;100.00;100696.19;5013128;28;20201;-72
2022/12/28 05:24:43;;;;;;;9.85;7.32;;;;;;;5.58;100.00;100701.47;5014793;28;20199;-72
2022/12/28 05:27:10;;;;;;;8.25;6.50;;;;;;;5.62;100.00;100690.69;5015361;28;20249;-72
2022/12/28 05:29:36;;;;;;;8.27;6.15;;;;;;;5.66;100.00;100696.00;5014565;28;20229;-71
2022/12/28 05:32:05;;;;;;;10.32;6.75;;;;;;;5.65;100.00;100695.09;5014149;28;20198;-71
2022/12/28 05:34:31;;;;;;;12.57;5.97;;;;;;;5.70;100.00;100679.88;5012880;28;20205;-70
2022/12/28 05:36:58;;;;;;;8.27;5.85;;;;;;;5.74;100.00;100683.34;5011315;28;20199;-72
2022/12/28 05:39:24;;;;;;;7.90;5.90;;;;;;;5.76;100.00;100678.84;5001468;28;20748;-72
2022/12/28 05:41:51;;;;;;;7.82;5.90;;;;;;;5.80;100.00;100676.06;5012581;28;20198;-72
2022/12/28 05:44:17;;;;;;;9.90;6.15;;;;;;;5.82;100.00;100663.56;5012633;28;20187;-72
2022/12/28 05:46:44;;;;;;;11.10;6.30;;;;;;;5.82;100.00;100668.03;5012364;28;20683;-73
2022/12/28 05:49:12;;;;;;;8.60;4.93;;;;;;;5.85;100.00;100652.78;5005701;28;20307;-71
2022/12/28 05:51:38;;;;;;;8.32;5.70;;;;;;;5.91;100.00;100654.47;4993200;28;20195;-70
2022/12/28 05:54:05;;;;;;;7.93;6.03;;;;;;;5.91;100.00;100659.81;4993172;28;20209;-71
2022/12/28 05:56:33;;;;;;;11.68;5.25;;;;;;;5.89;100.00;100647.41;4992858;28;20219;-71
2022/12/28 05:59:01;;;;;;;6.90;5.30;;;;;;;5.94;100.00;100651.75;4992253;28;20623;-72
2022/12/28 06:01:29;;;;;;;7.50;5.60;;;;;;;5.95;100.00;100640.16;4992579;28;20695;-70
2022/12/28 06:03:57;;;;;;;7.57;5.72;;;;;;;5.99;100.00;100644.53;5003890;28;20202;-70
2022/12/28 06:06:26;;;;;;;6.38;4.78;;;;;;;6.02;100.00;100631.06;5013800;28;20206;-71
2022/12/28 06:08:52;;;;;;;6.70;5.10;;;;;;;6.06;100.00;100629.22;5018008;28;20222;-72
2022/12/28 06:11:21;;;;;;;5.30;4.03;;;;;;;6.06;100.00;100621.22;5018266;28;20199;-71
2022/12/28 06:13:48;;;;;;;11.85;5.50;;;;;;;6.09;100.00;100628.28;5016302;28;20197;-70
2022/12/28 06:16:16;;;;;;;6.72;4.95;;;;;;;6.14;100.00;100623.69;5017972;28;20281;-71
2022/12/28 06:18:44;;;;;;;9.50;4.50;;;;;;;6.18;100.00;100615.56;5017992;28;20215;-72
2022/12/28 06:21:14;;;;;;;6.70;4.45;;;;;;;6.20;100.00;100613.72;5019422;28;20245;-72
2022/12/28 06:23:43;;;;;;;7.85;5.13;;;;;;;6.27;100.00;100611.78;5016087;28;20282;-74
2022/12/28 06:26:12;;;;;;;6.65;4.43;;;;;;;6.27;100.00;100611.78;5008408;28;20683;-72
2022/12/28 06:28:40;;;;;;;6.97;4.40;;;;;;;6.23;100.00;100610.97;4995823;28;20592;-71
2022/12/28 06:31:08;;;;;;;6.10;4.75;;;;;;;6.28;100.00;100607.31;5007030;28;20199;-71
2022/12/28 06:33:35;;;;;;;5.53;3.80;;;;;;;6.25;100.00;100606.47;5015305;28;20683;-71
2022/12/28 06:36:02;;;;;;;5.13;4.30;;;;;;;6.26;100.00;100608.25;5015459;28;20241;-71
2022/12/28 06:38:31;;;;;;;5.10;3.90;;;;;;;6.25;100.00;100613.63;5014772;28;20250;-70
2022/12/28 06:41:04;;;;;;;6.95;4.10;;;;;;;6.26;100.00;100618.03;5015751;28;20207;-72
2022/12/28 06:43:32;;;;;;;4.97;4.07;;;;;;;6.23;100.00;100596.72;5015565;28;20191;-71
2022/12/28 06:45:59;;;;;;;6.32;4.60;;;;;;;6.25;100.00;100609.13;5004046;28;20203;-71
2022/12/28 06:48:25;;;;;;;19.15;13.10;;;;;;;6.37;100.00;100602.59;5004215;28;20226;-70
2022/12/28 06:50:56;;;;;;;29.90;17.02;;;;;;;6.34;100.00;100607.16;5015249;28;20202;-71
2022/12/28 06:53:23;;;;;;;7.55;5.07;;;;;;;6.23;100.00;100613.63;5015408;28;20245;-70
2022/12/28 06:55:53;;;;;;;5.72;4.85;;;;;;;6.16;100.00;100593.31;5014935;28;20684;-73
2022/12/28 06:58:21;;;;;;;5.20;4.30;;;;;;;6.12;100.00;100605.00;5005269;28;20677;-71
2022/12/28 07:00:48;;;;;;;7.25;4.55;;;;;;;6.08;100.00;100597.97;5014759;28;20206;-72
2022/12/28 07:03:14;;;;;;;7.03;4.75;;;;;;;6.01;100.00;100601.69;5014915;28;20206;-72
2022/12/28 07:05:41;;;;;;;6.78;4.75;;;;;;;6.00;100.00;100592.81;5015044;28;20599;-71
2022/12/28 07:08:07;;;;;;;6.18;4.22;;;;;;;5.95;100.00;100581.34;5013747;28;20230;-72
2022/12/28 07:10:34;;;;;;;6.18;3.90;;;;;;;5.93;100.00;100599.19;5013989;28;20234;-73
2022/12/28 07:13:01;;;;;;;8.55;4.80;;;;;;;5.89;100.00;100584.13;5014629;28;20198;-72
2022/12/28 07:15:28;;;;;;;11.30;5.00;;;;;;;5.89;100.00;100589.47;5014528;28;20237;-71
2022/12/28 07:17:55;;;;;;;6.95;5.15;;;;;;;5.89;100.00;100588.59;5020338;28;20226;-71
2022/12/28 07:20:21;;;;;;;10.77;5.20;;;;;;;5.88;100.00;100589.50;5023595;28;20207;-71
2022/12/28 07:22:48;;;;;;;10.20;5.07;;;;;;;5.87;100.00;100593.09;5015150;28;20203;-71
2022/12/28 07:25:14;;;;;;;6.28;4.53;;;;;;;5.83;100.00;100592.28;5014654;28;20198;-72
2022/12/28 07:27:41;;;;;;;7.30;5.22;;;;;;;5.81;100.00;100589.66;5013671;28;20226;-72
2022/12/28 07:30:09;;;;;;;7.30;4.53;;;;;;;5.80;100.00;100585.22;5014880;28;20206;-71
2022/12/28 07:32:38;;;;;;;7.80;4.60;;;;;;;5.82;100.00;100588.72;5015396;28;20294;-71
2022/12/28 07:35:06;;;;;;;6.28;4.18;;;;;;;5.87;100.00;100593.09;5016956;28;20570;-72
2022/12/28 07:37:32;;;;;;;6.82;5.28;;;;;;;5.90;100.00;100587.66;5015235;28;20229;-70
2022/12/28 07:39:59;;;;;;;6.40;4.65;;;;;;;5.91;100.00;100589.44;5013767;28;20198;-71
2022/12/28 07:42:25;;;;;;;7.97;3.90;;;;;;;5.88;100.00;100584.16;5022062;28;20191;-71
2022/12/28 07:44:52;;;;;;;7.13;4.82;;;;;;;5.90;100.00;100585.00;5023024;28;20198;-72
2022/12/28 07:47:18;;;;;;;7.88;4.95;;;;;;;5.94;100.00;100582.25;5014715;28;20195;-71
2022/12/28 07:49:46;;;;;;;7.15;5.20;;;;;;;5.95;100.00;100580.47;5017849;28;20199;-74
2022/12/28 07:52:13;;;;;;;8.32;5.30;;;;;;;5.94;100.00;100574.22;5017585;28;20672;-72
2022/12/28 07:54:39;;;;;;;7.90;4.60;;;;;;;5.94;100.00;100584.00;5017423;28;20202;-71
2022/12/28 07:57:06;;;;;;;5.95;4.70;;;;;;;5.98;100.00;100588.41;5017900;28;20729;-72
2022/12/28 07:59:32;;;;;;;6.07;4.07;;;;;;;6.02;100.00;100566.91;5016998;28;20213;-71
2022/12/28 08:01:59;;;;;;;10.57;4.63;;;;;;;6.01;100.00;100566.94;5017188;28;20202;-70
2022/12/28 08:04:25;;;;;;;6.00;4.20;;;;;;;5.99;100.00;100558.97;4999038;28;20218;-72
2022/12/28 08:06:53;;;;;;;5.30;4.05;;;;;;;5.99;100.00;100568.75;5015471;28;20290;-71
2022/12/28 08:09:20;;;;;;;7.45;4.65;;;;;;;6.03;100.00;100565.97;5014726;28;20230;-72
2022/12/28 08:11:48;;;;;;;7.40;4.60;;;;;;;6.03;100.00;100570.44;5017153;28;20217;-73
2022/12/28 08:14:15;;;;;;;6.95;4.30;;;;;;;6.04;100.00;100550.84;5015611;28;20576;-72
2022/12/28 08:16:43;;;;;;;6.18;3.97;;;;;;;6.07;100.00;100544.53;5014170;28;20572;-73
2022/12/28 08:19:10;;;;;;;5.80;4.32;;;;;;;6.12;100.00;100554.19;5013063;28;20738;-72
2022/12/28 08:21:39;;;;;;;6.20;4.10;;;;;;;6.12;100.00;100553.31;5013203;28;20201;-72
2022/12/28 08:24:08;;;;;;;32.42;18.55;;;;;;;6.51;100.00;100545.19;4996872;28;20199;-72
2022/12/28 08:26:37;;;;;;;10.50;5.60;;;;;;;6.51;100.00;100531.81;4997410;28;20218;-72
2022/12/28 08:29:06;;;;;;;4.65;3.88;;;;;;;6.35;100.00;100536.69;4994968;28;20227;-72
2022/12/28 08:31:34;;;;;;;4.80;3.53;;;;;;;6.35;100.00;100542.91;4996060;28;20203;-72
2022/12/28 08:34:02;;;;;;;7.85;3.80;;;;;;;6.37;100.00;100537.53;4994174;28;20226;-72
2022/12/28 08:36:30;;;;;;;7.25;3.38;;;;;;;6.44;100.00;100532.00;5005367;28;20214;-71
2022/12/28 08:38:57;;;;;;;5.32;3.28;;;;;;;6.46;100.00;100527.44;5013629;28;20227;-72
2022/12/28 08:41:27;;;;;;;6.40;3.60;;;;;;;6.54;100.00;100535.28;5014304;28;20312;-73
2022/12/28 08:43:54;;;;;;;4.85;2.75;;;;;;;6.62;100.00;100535.06;5012170;28;20202;-70
2022/12/28 08:46:22;;;;;;;3.95;3.17;;;;;;;6.61;100.00;100526.19;5014107;28;20206;-72
2022/12/28 08:48:50;;;;;;;6.72;3.30;;;;;;;6.73;100.00;100521.41;5013046;28;20716;-74
2022/12/28 08:51:19;;;;;;;6.88;3.72;;;;;;;6.81;100.00;100527.44;5004778;28;20213;-74
2022/12/28 08:53:47;;;;;;;4.18;3.40;;;;;;;6.90;100.00;100521.81;5012321;28;20195;-72
2022/12/28 08:56:15;;;;;;;4.75;3.05;;;;;;;6.92;100.00;100528.03;5013314;28;20381;-71
2022/12/28 08:58:45;;;;;;;5.63;3.55;;;;;;;7.02;100.00;100525.94;5013615;28;20227;-72
2022/12/28 09:01:14;;;;;;;7.10;3.60;;;;;;;7.00;100.00;100525.09;5013158;28;20203;-71
2022/12/28 09:03:43;;;;;;;4.25;3.17;;;;;;;7.03;100.00;100533.94;5012933;28;20203;-72
2022/12/28 09:06:11;;;;;;;5.95;3.58;;;;;;;7.12;100.00;100529.22;5013377;28;20199;-71
2022/12/28 09:08:38;;;;;;;3.83;2.70;;;;;;;7.16;100.00;100530.91;5012050;28;20688;-71
2022/12/28 09:11:06;;;;;;;7.00;3.10;;;;;;;7.38;100.00;100528.47;5013613;28;20203;-72
2022/12/28 09:13:34;;;;;;;4.70;3.63;;;;;;;7.69;100.00;100536.44;5012935;28;20524;-71
2022/12/28 09:16:04;;;;;;;4.45;2.85;;;;;;;7.54;100.00;100537.78;5012840;28;20214;-71
2022/12/28 09:18:30;;;;;;;4.85;3.42;;;;;;;7.55;100.00;100552.06;5012153;28;20218;-72
2022/12/28 09:20:57;;;;;;;7.63;3.13;;;;;;;7.49;100.00;100537.06;5013114;28;20206;-70
2022/12/28 09:23:23;;;;;;;5.57;2.90;;;;;;;7.50;100.00;100544.16;5012514;28;20199;-73
2022/12/28 09:25:50;;;;;;;5.65;3.63;;;;;;;7.63;100.00;100545.53;5012965;28;20550;-72
2022/12/28 09:28:16;;;;;;;3.88;2.85;;;;;;;7.72;100.00;100537.22;5012138;28;20590;-72
2022/12/28 09:30:43;;;;;;;3.72;3.28;;;;;;;7.81;100.00;100533.38;5012448;28;20198;-71
2022/12/28 09:35:58;;;;;;;5.43;3.13;;;;;;;7.79;100.00;100531.66;5014712;28;20652;-72
2022/12/28 09:38:25;;;;;;;8.75;3.00;;;;;;;7.76;100.00;100532.66;5014897;28;20245;-72
2022/12/28 09:40:51;;;;;;;6.15;3.25;;;;;;;7.86;100.00;100527.84;5018408;28;20569;-72
2022/12/28 09:43:19;;;;;;;4.22;3.30;;;;;;;7.84;100.00;100535.06;5018373;28;20206;-71
2022/12/28 09:45:46;;;;;;;3.75;2.50;;;;;;;7.77;100.00;100515.63;5017836;28;20206;-72
2022/12/28 09:48:18;;;;;;;4.28;3.17;;;;;;;7.85;100.00;100523.44;5016022;28;20230;-71
2022/12/28 09:50:47;;;;;;;4.38;2.88;;;;;;;7.80;100.00;100514.63;5015780;28;20202;-73
2022/12/28 09:53:25;;;;;;;4.55;3.47;;;;;;;7.81;100.00;100522.66;5015932;28;20205;-75
2022/12/28 09:56:02;;;;;;;27.50;16.92;;;;;;;8.06;100.00;100517.34;5021913;28;20257;-74
2022/12/28 09:58:30;;;;;;;5.07;3.25;;;;;;;8.07;100.00;100543.28;5024025;28;20233;-70
2022/12/28 10:00:59;;;;;;;5.25;2.90;;;;;;;8.03;100.00;100519.28;5018973;28;20695;-72
2022/12/28 10:03:33;;;;;;;5.85;3.30;;;;;;;8.03;100.00;100532.69;5018958;28;20206;-73
2022/12/28 10:05:59;;;;;;;6.80;3.20;;;;;;;8.01;100.00;100510.41;5017452;28;20198;-74
2022/12/28 10:08:27;;;;;;;3.50;2.90;;;;;;;7.96;100.00;100526.66;5016192;28;20233;-72
2022/12/28 10:10:59;;;;;;;4.40;2.90;;;;;;;7.98;100.00;100515.84;5009828;28;20574;-72
2022/12/28 10:13:28;;;;;;;6.32;3.30;;;;;;;7.92;100.00;100515.13;5015909;28;20194;-73
2022/12/28 10:15:55;;;;;;;3.08;2.78;;;;;;;7.96;100.00;100521.28;5016065;28;20205;-71
2022/12/28 10:18:24;;;;;;;3.35;2.65;;;;;;;8.02;100.00;100517.50;5015916;28;20227;-76
2022/12/28 10:20:52;;;;;;;4.47;2.80;;;;;;;8.00;100.00;100509.50;5003784;28;20203;-74
2022/12/28 10:23:24;;;;;;;5.97;3.05;;;;;;;8.04;100.00;100513.84;5000106;28;20662;-71
2022/12/28 10:25:53;;;;;;;4.28;2.65;;;;;;;8.08;100.00;100517.31;4996674;28;20191;-72
2022/12/28 10:28:22;;;;;;;5.50;3.00;;;;;;;8.15;100.00;100509.00;5013502;28;20215;-73
2022/12/28 10:31:03;;;;;;;4.07;2.95;;;;;;;8.14;100.00;100504.56;5016685;28;20217;-73
2022/12/28 10:33:29;;;;;;;5.60;2.75;;;;;;;8.14;100.00;100507.25;5016711;28;20274;-73
2022/12/28 10:35:58;;;;;;;4.88;3.00;;;;;;;8.19;100.00;100498.19;5019380;28;20207;-73
2022/12/28 10:38:29;;;;;;;4.03;2.50;;;;;;;8.35;100.00;100496.72;5023003;28;20230;-75
2022/12/28 10:41:00;;;;;;;4.80;3.15;;;;;;;8.32;100.00;100486.97;5018818;28;20183;-72
2022/12/28 10:43:29;;;;;;;4.43;3.10;;;;;;;8.37;100.00;100500.22;5017486;28;20186;-74
2022/12/28 10:45:58;;;;;;;3.67;2.38;;;;;;;8.39;100.00;100498.38;5016504;28;20256;-72
2022/12/28 10:48:28;;;;;;;13.82;3.20;;;;;;;8.38;100.00;100496.59;5015157;28;20223;-75
2022/12/28 10:50:58;;;;;;;5.85;2.90;;;;;;;8.26;100.00;100505.09;5015123;28;20215;-73
2022/12/28 10:53:31;;;;;;;3.25;2.42;;;;;;;8.22;100.00;100493.56;5014629;28;20236;-72
2022/12/28 10:56:04;;;;;;;5.18;2.78;;;;;;;8.19;100.00;100492.81;5015021;28;20572;-73
2022/12/28 10:58:31;;;;;;;4.18;3.20;;;;;;;8.21;100.00;100493.63;5014765;28;20237;-73
2022/12/28 11:00:59;;;;;;;4.45;2.70;;;;;;;8.23;100.00;100497.13;5015643;28;20577;-71
2022/12/28 11:03:28;;;;;;;4.38;2.97;;;;;;;8.14;100.00;100493.84;5015813;28;20577;-72
2022/12/28 11:06:16;;;;;;;4.45;2.55;;;;;;;8.25;100.00;100484.53;5015916;28;20637;-71
2022/12/28 11:08:46;;;;;;;5.45;2.70;;;;;;;8.21;100.00;100489.16;5042190;22;20634;-72
2022/12/28 11:11:23;;;;;;;5.82;2.72;;;;;;;8.19;100.00;100466.00;5045614;28;20212;-71
2022/12/28 11:13:55;;;;;;;4.80;2.50;;;;;;;8.26;100.00;100473.75;5048186;28;20178;-71
2022/12/28 11:16:22;;;;;;;5.60;2.47;;;;;;;8.36;100.00;100455.53;5048628;28;20671;-72
2022/12/28 11:18:50;;;;;;;5.68;3.00;;;;;;;8.29;100.00;100459.34;5054762;28;20218;-73
2022/12/28 11:21:20;;;;;;;5.20;3.20;;;;;;;8.25;100.00;100457.69;5065272;28;20210;-72
2022/12/28 11:23:50;;;;;;;4.97;2.63;;;;;;;8.26;100.00;100448.75;5064006;28;20296;-74
2022/12/28 11:26:17;;;;;;;6.63;2.60;;;;;;;8.22;100.00;100445.28;5062473;28;20186;-71
2022/12/28 11:28:45;;;;;;;5.88;2.85;;;;;;;8.32;100.00;100451.19;5062399;28;20212;-72
2022/12/28 11:31:20;;;;;;;3.67;2.53;;;;;;;8.37;100.00;100446.56;5077326;28;20541;-71
2022/12/28 11:33:50;;;;;;;6.43;2.47;;;;;;;8.41;100.00;100439.28;5081744;28;20184;-73
2022/12/28 11:36:20;;;;;;;4.80;3.20;;;;;;;8.45;100.00;100423.00;5084659;28;20235;-72
2022/12/28 11:38:50;;;;;;;4.00;2.90;;;;;;;8.54;100.00;100422.69;5085169;28;20246;-74
2022/12/28 11:41:41;;;;;;;6.93;2.60;;;;;;;8.72;100.00;100414.88;5084141;28;20645;-73
2022/12/28 11:44:20;;;;;;;7.55;2.28;;;;;;;9.22;100.00;100398.63;5064088;28;20203;-71
2022/12/28 11:47:00;;;;;;;5.53;3.13;;;;;;;9.87;100.00;100390.59;5062558;28;20197;-72
2022/12/28 11:49:29;;;;;;;22.02;15.07;;;;;;;10.20;100.00;100388.28;5072937;28;20220;-73
2022/12/28 11:52:45;;;;;;;4.90;3.58;;;;;;;11.48;100.00;100381.38;5078998;28;20231;-70
2022/12/28 11:55:50;;;;;;;4.22;2.25;;;;;;;11.39;100.00;100387.25;5082168;28;20196;-74
2022/12/28 11:58:54;;;;;;;3.70;2.50;;;;;;;10.71;100.00;100384.19;5064839;28;20213;-71